Time;durP1;ratioP1;P1;durP2;ratioP2;P2;SDS_P1;SDS_P2;PMS_P1;PMS_P2;Temp;Humidity;BMP_temperature;BMP_pressure;BME280_temperature;BME280_humidity;BME280_pressure;Samples;Min_cycle;Max_cycle;Signal;HPM_P1;HPM_P2
2021/06/02 00:00:21;;;;;;;2.35;1.85;;;18.90;75.40;;;;;;5029499;28;20084;-87
2021/06/02 00:02:59;;;;;;;3.35;2.08;;;18.90;75.60;;;;;;5029737;28;20040;-89
2021/06/02 00:05:26;;;;;;;5.53;2.60;;;18.90;75.90;;;;;;5029339;28;20108;-90
2021/06/02 00:07:52;;;;;;;3.00;1.95;;;18.80;76.10;;;;;;5029352;28;20412;-89
2021/06/02 00:10:19;;;;;;;3.08;2.10;;;18.80;76.30;;;;;;5032713;28;20025;-88
2021/06/02 00:12:45;;;;;;;3.25;2.22;;;18.80;76.50;;;;;;5032960;28;20052;-89
2021/06/02 00:15:12;;;;;;;2.60;1.80;;;18.70;76.80;;;;;;5031186;28;20044;-89
2021/06/02 00:17:38;;;;;;;2.88;2.00;;;18.70;77.00;;;;;;5031051;28;20022;-89
2021/06/02 00:20:06;;;;;;;4.43;2.35;;;18.70;77.20;;;;;;5029079;28;20018;-89
2021/06/02 00:22:31;;;;;;;4.15;1.92;;;18.60;77.20;;;;;;5031485;28;20036;-87
2021/06/02 00:24:57;;;;;;;3.40;2.30;;;18.60;77.60;;;;;;5032173;28;20017;-89
2021/06/02 00:27:23;;;;;;;4.10;2.50;;;18.60;77.80;;;;;;5032094;28;20035;-89
2021/06/02 00:29:50;;;;;;;4.93;2.55;;;18.50;77.90;;;;;;5032066;28;20029;-88
2021/06/02 00:32:20;;;;;;;3.58;2.45;;;18.50;77.90;;;;;;5032524;28;20021;-88
2021/06/02 00:34:48;;;;;;;3.53;2.47;;;18.50;78.00;;;;;;5032778;28;20044;-88
2021/06/02 00:37:14;;;;;;;4.57;2.65;;;18.40;78.20;;;;;;5031438;28;20140;-87
2021/06/02 00:39:47;;;;;;;3.17;2.42;;;18.40;78.60;;;;;;5031017;28;20464;-90
2021/06/02 00:42:14;;;;;;;;;;;18.30;79.60;;;;;;5031071;28;20099;-89
2021/06/02 00:44:40;;;;;;;5.60;3.08;;;18.20;79.10;;;;;;5031700;28;19996;-89
2021/06/02 00:47:06;;;;;;;3.88;2.72;;;18.20;79.50;;;;;;5029882;28;20709;-88
2021/06/02 00:49:32;;;;;;;4.30;2.65;;;18.20;79.80;;;;;;5031214;28;20022;-89
2021/06/02 00:52:06;;;;;;;3.47;2.50;;;18.10;80.00;;;;;;5035064;28;20021;-89
2021/06/02 00:54:34;;;;;;;4.13;2.63;;;18.10;80.30;;;;;;5035073;28;20079;-88
2021/06/02 00:57:11;;;;;;;5.45;2.85;;;18.00;80.50;;;;;;5035345;28;20497;-89
2021/06/02 00:59:41;;;;;;;4.65;2.95;;;18.00;80.70;;;;;;5035026;28;20032;-89
2021/06/02 01:02:18;;;;;;;3.90;2.80;;;18.00;81.10;;;;;;5034878;28;20025;-90
2021/06/02 01:04:44;;;;;;;6.20;3.05;;;17.90;81.20;;;;;;5018591;28;20529;-89
2021/06/02 01:07:11;;;;;;;4.38;2.90;;;17.90;81.60;;;;;;5034624;28;20030;-89
2021/06/02 01:09:44;;;;;;;4.38;2.97;;;17.90;81.80;;;;;;5034813;28;20017;-89
2021/06/02 01:12:13;;;;;;;4.65;2.95;;;17.90;82.10;;;;;;5035018;28;20406;-88
2021/06/02 01:14:39;;;;;;;3.65;2.63;;;17.80;82.40;;;;;;5034813;28;20026;-89
2021/06/02 01:17:06;;;;;;;4.68;3.22;;;17.70;82.90;;;;;;5034600;28;20028;-88
2021/06/02 01:19:31;;;;;;;5.32;3.30;;;17.70;83.20;;;;;;5035269;28;20108;-89
2021/06/02 01:22:00;;;;;;;5.20;3.42;;;17.70;83.50;;;;;;5035273;28;20513;-89
2021/06/02 01:24:31;;;;;;;5.25;3.10;;;17.70;84.50;;;;;;5035118;28;20136;-89
2021/06/02 01:26:59;;;;;;;4.88;3.10;;;17.70;84.10;;;;;;5035441;28;20128;-88
2021/06/02 01:29:27;;;;;;;8.25;3.92;;;17.60;84.20;;;;;;5035389;28;20022;-89
2021/06/02 01:32:30;;;;;;;4.93;3.88;;;17.60;84.70;;;;;;5036629;28;20028;-89
2021/06/02 01:35:01;;;;;;;6.18;4.00;;;17.60;85.30;;;;;;5035295;28;20128;-89
2021/06/02 01:37:56;;;;;;;6.80;3.55;;;17.50;85.80;;;;;;5035131;28;20041;-90
2021/06/02 01:40:39;;;;;;;5.47;4.20;;;17.50;86.00;;;;;;5001622;28;20029;-90
2021/06/02 01:43:24;;;;;;;;;;;17.50;86.50;;;;;;5034908;28;20085;-88
2021/06/02 01:46:15;;;;;;;6.38;4.07;;;17.40;86.70;;;;;;5034968;28;19947;-89
2021/06/02 01:49:15;;;;;;;5.90;3.97;;;17.40;87.20;;;;;;5011873;28;20070;-90
2021/06/02 01:52:16;;;;;;;6.70;4.85;;;17.40;87.60;;;;;;5015096;28;20033;-89
2021/06/02 01:54:54;;;;;;;6.85;4.55;;;17.40;88.20;;;;;;5014884;28;20379;-89
2021/06/02 01:57:30;;;;;;;5.75;3.95;;;17.40;88.80;;;;;;5014732;28;20390;-90
2021/06/02 02:00:14;;;;;;;6.65;4.05;;;17.50;89.10;;;;;;5014983;28;20084;-89
2021/06/02 02:03:08;;;;;;;6.45;4.63;;;17.50;89.30;;;;;;5014751;28;20476;-89
2021/06/02 02:06:05;;;;;;;5.35;3.85;;;17.40;89.60;;;;;;5014568;28;20480;-89
2021/06/02 02:08:46;;;;;;;5.80;3.50;;;17.40;90.00;;;;;;5016115;28;20045;-88
2021/06/02 02:11:35;;;;;;;5.65;4.15;;;17.40;90.30;;;;;;5035404;28;20423;-89
2021/06/02 02:14:15;;;;;;;5.97;4.00;;;17.40;90.50;;;;;;5034262;28;20018;-88
2021/06/02 02:17:23;;;;;;;5.00;3.65;;;17.40;90.70;;;;;;5034233;28;20049;-88
2021/06/02 02:20:18;;;;;;;7.15;4.35;;;17.40;90.70;;;;;;5034913;28;20044;-89
2021/06/02 02:23:20;;;;;;;4.78;3.65;;;17.30;90.90;;;;;;5017702;28;20423;-88
2021/06/02 02:26:20;;;;;;;6.75;3.53;;;17.30;91.10;;;;;;5033485;28;20065;-88
2021/06/02 02:28:54;;;;;;;5.25;3.67;;;17.30;91.30;;;;;;5034123;28;20033;-88
2021/06/02 02:31:46;;;;;;;6.82;4.05;;;17.30;91.50;;;;;;5034727;28;20021;-88
2021/06/02 02:34:31;;;;;;;5.22;3.90;;;17.30;91.60;;;;;;5033757;28;20021;-88
2021/06/02 02:37:04;;;;;;;4.85;3.47;;;17.30;91.80;;;;;;5014168;28;20120;-88
2021/06/02 02:40:06;;;;;;;6.20;4.35;;;17.30;92.00;;;;;;5014193;28;20101;-90
2021/06/02 02:42:37;;;;;;;6.80;3.65;;;17.30;92.10;;;;;;5014092;28;20054;-89
2021/06/02 02:45:08;;;;;;;5.10;3.75;;;17.20;92.30;;;;;;5014397;28;20018;-90
2021/06/02 02:47:57;;;;;;;5.28;3.83;;;17.20;92.50;;;;;;5024336;28;20041;-89
2021/06/02 02:50:58;;;;;;;5.45;3.72;;;17.20;92.60;;;;;;5033848;28;20083;-89
2021/06/02 02:53:37;;;;;;;5.43;3.80;;;17.20;92.80;;;;;;5033300;28;20029;-89
2021/06/02 02:56:09;;;;;;;5.05;3.50;;;17.10;92.90;;;;;;5033588;28;20113;-89
2021/06/02 02:58:53;;;;;;;5.43;3.78;;;17.10;93.10;;;;;;5033335;28;20533;-90
2021/06/02 03:01:39;;;;;;;6.25;4.00;;;17.00;93.20;;;;;;5033368;28;20021;-89
2021/06/02 03:04:16;;;;;;;4.57;3.33;;;17.00;93.40;;;;;;5033686;28;20424;-90
2021/06/02 03:06:52;;;;;;;5.32;3.90;;;17.00;93.50;;;;;;5013640;28;20088;-90
2021/06/02 03:09:29;;;;;;;6.85;3.78;;;17.00;93.70;;;;;;5013743;28;20021;-90
2021/06/02 03:12:36;;;;;;;5.70;4.22;;;16.90;93.90;;;;;;5013558;28;20038;-90
2021/06/02 03:15:11;;;;;;;6.35;4.00;;;16.90;94.00;;;;;;5013892;28;20065;-90
2021/06/02 03:17:45;;;;;;;5.78;4.20;;;16.80;94.30;;;;;;5014501;28;20468;-90
2021/06/02 03:20:22;;;;;;;6.72;4.47;;;16.80;94.40;;;;;;5013535;28;20509;-90
2021/06/02 03:22:59;;;;;;;6.13;3.83;;;16.80;94.60;;;;;;5013384;28;20021;-90
2021/06/02 03:25:40;;;;;;;5.40;3.83;;;16.80;94.70;;;;;;5022755;28;20022;-90
2021/06/02 03:28:28;;;;;;;6.40;3.75;;;16.80;94.80;;;;;;5032707;28;20103;-90
2021/06/02 03:31:22;;;;;;;5.82;3.88;;;16.80;95.00;;;;;;5013173;28;20021;-90
2021/06/02 03:34:18;;;;;;;5.93;4.22;;;16.70;95.10;;;;;;5000490;28;20680;-90
2021/06/02 03:37:17;;;;;;;6.22;4.65;;;16.70;95.30;;;;;;5032691;28;20025;-90
2021/06/02 03:40:14;;;;;;;5.95;3.67;;;16.70;95.50;;;;;;5032862;28;20022;-89
2021/06/02 03:43:10;;;;;;;6.00;4.10;;;16.70;95.60;;;;;;5033121;28;20076;-89
2021/06/02 03:45:50;;;;;;;6.32;4.72;;;16.70;95.70;;;;;;5033116;28;20033;-89
2021/06/02 03:48:25;;;;;;;6.10;4.15;;;16.60;95.90;;;;;;5033366;28;20037;-90
2021/06/02 03:50:53;;;;;;;5.47;4.00;;;16.60;96.00;;;;;;5033442;28;20088;-90
2021/06/02 03:53:33;;;;;;;7.07;4.50;;;16.60;96.20;;;;;;5033135;28;20587;-90
2021/06/02 03:56:14;;;;;;;6.72;4.15;;;16.60;96.30;;;;;;5032632;28;20021;-89
2021/06/02 03:58:58;;;;;;;5.97;3.92;;;16.60;96.60;;;;;;5032486;28;20060;-89
2021/06/02 04:01:29;;;;;;;5.80;4.13;;;16.50;96.60;;;;;;5032701;28;20121;-88
2021/06/02 04:04:29;;;;;;;6.05;4.30;;;16.60;96.80;;;;;;5032817;28;20541;-89
2021/06/02 04:07:02;;;;;;;6.28;4.32;;;16.50;96.80;;;;;;5012894;28;20121;-89
2021/06/02 04:09:30;;;;;;;6.50;5.00;;;16.50;97.00;;;;;;5012650;28;20116;-89
2021/06/02 04:12:12;;;;;;;5.70;4.47;;;16.50;97.20;;;;;;5012536;28;20040;-89
2021/06/02 04:14:42;;;;;;;6.85;4.90;;;16.50;97.30;;;;;;5032728;28;20026;-89
2021/06/02 04:17:09;;;;;;;6.78;4.55;;;16.50;97.40;;;;;;5032580;28;20036;-90
2021/06/02 04:19:35;;;;;;;7.50;4.93;;;16.50;97.50;;;;;;5032424;28;20101;-89
2021/06/02 04:22:03;;;;;;;6.68;5.00;;;16.60;97.70;;;;;;5032992;28;20428;-88
2021/06/02 04:24:30;;;;;;;6.78;4.85;;;16.60;97.80;;;;;;5032449;28;20356;-90
2021/06/02 04:26:56;;;;;;;8.77;5.30;;;16.60;98.00;;;;;;5035836;28;20068;-89
2021/06/02 04:29:24;;;;;;;8.77;5.40;;;16.60;98.10;;;;;;5037038;28;20026;-90
2021/06/02 04:31:59;;;;;;;7.70;5.88;;;16.60;98.10;;;;;;5035469;28;20570;-90
2021/06/02 04:34:27;;;;;;;6.50;5.10;;;16.70;98.20;;;;;;5036216;28;20022;-89
2021/06/02 04:36:55;;;;;;;7.07;5.60;;;16.70;98.30;;;;;;5032620;28;20014;-89
2021/06/02 04:39:24;;;;;;;7.80;5.13;;;16.70;98.30;;;;;;5035017;28;20048;-88
2021/06/02 04:41:54;;;;;;;7.22;5.25;;;16.80;98.40;;;;;;5032810;28;20042;-88
2021/06/02 04:44:23;;;;;;;6.80;5.20;;;16.80;98.50;;;;;;5033973;28;20044;-87
2021/06/02 04:46:49;;;;;;;7.72;5.10;;;16.80;98.60;;;;;;5033134;28;20049;-87
2021/06/02 04:49:15;;;;;;;7.35;5.30;;;16.90;98.70;;;;;;5031761;28;20064;-87
2021/06/02 04:51:59;;;;;;;7.50;5.55;;;16.90;98.80;;;;;;5032140;28;20119;-86
2021/06/02 04:54:52;;;;;;;8.93;5.10;;;16.90;98.80;;;;;;5031261;28;20029;-87
2021/06/02 04:57:45;;;;;;;6.93;5.13;;;16.90;98.90;;;;;;5033212;28;20112;-88
2021/06/02 05:00:44;;;;;;;6.97;5.10;;;17.00;98.90;;;;;;5033759;28;20504;-88
2021/06/02 05:03:42;;;;;;;6.03;4.72;;;17.00;99.00;;;;;;5013502;28;20026;-87
2021/06/02 05:06:46;;;;;;;7.20;5.38;;;17.10;99.00;;;;;;5015879;28;20033;-86
2021/06/02 05:09:26;;;;;;;6.93;5.13;;;17.10;99.00;;;;;;5032948;28;20048;-88
2021/06/02 05:12:29;;;;;;;8.88;6.15;;;17.10;99.10;;;;;;5033206;28;20040;-88
2021/06/02 05:15:31;;;;;;;8.18;5.53;;;17.10;99.00;;;;;;5033169;28;20095;-88
2021/06/02 05:18:03;;;;;;;6.35;4.75;;;17.20;99.10;;;;;;5028060;28;20083;-88
2021/06/02 05:24:29;;;;;;;9.00;6.22;;;17.30;99.00;;;;;;5002901;28;20037;-88
2021/06/02 05:27:34;;;;;;;9.23;6.13;;;17.40;99.10;;;;;;5017751;28;20033;-89
2021/06/02 05:30:42;;;;;;;8.13;5.97;;;17.40;99.00;;;;;;5022565;28;20426;-87
2021/06/02 05:33:14;;;;;;;8.38;5.20;;;17.50;99.00;;;;;;5032927;28;20040;-87
2021/06/02 05:36:03;;;;;;;9.55;6.28;;;17.60;99.20;;;;;;5033070;28;20056;-88
2021/06/02 05:38:59;;;;;;;8.57;6.70;;;17.70;98.90;;;;;;5014631;28;20030;-88
2021/06/02 05:41:56;;;;;;;11.10;6.50;;;17.70;98.80;;;;;;5017799;28;20486;-86
2021/06/02 05:45:19;;;;;;;7.53;5.93;;;17.70;98.80;;;;;;5031219;28;20033;-87
2021/06/02 05:48:09;;;;;;;9.20;5.88;;;17.80;98.70;;;;;;4957208;28;20046;-87
2021/06/02 05:51:17;;;;;;;7.05;5.15;;;17.90;98.90;;;;;;4956770;28;20705;-87
2021/06/02 05:54:19;;;;;;;8.88;5.93;;;18.00;98.80;;;;;;5028461;28;20025;-87
2021/06/02 05:57:25;;;;;;;7.28;5.50;;;18.00;98.60;;;;;;5033883;28;20040;-89
2021/06/02 06:00:27;;;;;;;6.68;5.57;;;18.10;98.60;;;;;;5026335;28;20110;-88
2021/06/02 06:03:17;;;;;;;8.88;5.75;;;18.20;98.60;;;;;;5021549;28;20018;-88
2021/06/02 06:05:42;;;;;;;8.30;6.28;;;18.20;98.40;;;;;;5025119;28;20431;-88
2021/06/02 06:08:32;;;;;;;11.45;6.90;;;18.30;98.90;;;;;;5033374;28;20033;-87
2021/06/02 06:11:22;;;;;;;8.73;5.93;;;18.40;99.10;;;;;;5014062;28;20472;-88
2021/06/02 06:14:15;;;;;;;7.45;5.85;;;18.50;98.70;;;;;;5028151;28;20043;-90
2021/06/02 06:17:21;;;;;;;7.70;6.07;;;18.50;98.80;;;;;;5033334;28;20422;-89
2021/06/02 06:20:16;;;;;;;6.10;4.93;;;18.50;98.70;;;;;;5012644;28;20037;-90
2021/06/02 06:23:09;;;;;;;9.20;6.85;;;18.50;98.80;;;;;;5019089;28;20655;-91
2021/06/02 06:26:00;;;;;;;8.63;6.63;;;18.60;98.80;;;;;;5032037;28;20117;-91
2021/06/02 06:28:36;;;;;;;6.88;5.57;;;18.70;98.90;;;;;;5020179;28;20124;-90
2021/06/02 06:31:06;;;;;;;8.88;6.28;;;18.70;98.80;;;;;;5034120;28;20117;-88
2021/06/02 06:33:34;;;;;;;7.68;5.35;;;18.80;98.70;;;;;;5033369;28;20029;-89
2021/06/02 06:36:03;;;;;;;9.50;6.75;;;18.80;98.60;;;;;;5033834;28;20024;-89
2021/06/02 06:39:01;;;;;;;8.25;5.65;;;18.90;98.50;;;;;;5032744;28;20060;-89
2021/06/02 06:41:30;;;;;;;7.38;5.57;;;18.90;98.40;;;;;;5023158;28;20112;-89
2021/06/02 06:44:01;;;;;;;7.22;5.30;;;18.90;98.30;;;;;;5017135;28;20033;-90
2021/06/02 06:46:46;;;;;;;6.60;5.68;;;19.00;98.30;;;;;;5033827;28;20033;-90
2021/06/02 06:49:14;;;;;;;7.88;5.07;;;19.00;98.20;;;;;;5033427;28;20052;-90
2021/06/02 06:51:42;;;;;;;7.05;5.60;;;19.00;98.20;;;;;;5033803;28;20486;-89
2021/06/02 06:54:12;;;;;;;6.75;5.40;;;19.00;98.20;;;;;;5033408;28;20032;-90
2021/06/02 06:56:41;;;;;;;7.50;5.88;;;19.00;98.10;;;;;;5034765;28;20048;-92
2021/06/02 06:59:07;;;;;;;10.10;5.53;;;19.00;98.10;;;;;;5018430;28;20487;-91
2021/06/02 07:01:44;;;;;;;9.52;5.70;;;19.10;98.00;;;;;;5033954;28;20026;-89
2021/06/02 07:04:13;;;;;;;6.93;5.25;;;19.10;98.20;;;;;;5035199;28;20033;-90
2021/06/02 07:06:39;;;;;;;8.07;5.35;;;19.20;97.90;;;;;;5035161;28;20052;-90
2021/06/02 07:09:06;;;;;;;7.00;5.35;;;19.20;97.80;;;;;;5034807;28;20025;-89
2021/06/02 07:11:41;;;;;;;6.68;5.05;;;19.30;97.80;;;;;;5033933;28;20025;-89
2021/06/02 07:14:12;;;;;;;6.72;5.07;;;19.40;97.70;;;;;;5034046;28;20068;-88
2021/06/02 07:16:40;;;;;;;9.57;5.57;;;19.50;97.70;;;;;;5034446;28;20459;-88
2021/06/02 07:19:10;;;;;;;7.93;6.05;;;19.60;97.60;;;;;;5033669;28;20025;-90
2021/06/02 07:21:39;;;;;;;9.20;7.40;;;19.70;97.60;;;;;;5034037;28;20540;-89
2021/06/02 07:24:05;;;;;;;7.43;5.63;;;19.80;97.40;;;;;;5033842;28;20047;-91
2021/06/02 07:26:32;;;;;;;7.45;6.30;;;19.80;97.20;;;;;;5035097;28;20052;-90
2021/06/02 07:28:58;;;;;;;7.60;5.57;;;19.90;97.20;;;;;;5033731;28;20088;-90
2021/06/02 07:31:24;;;;;;;8.73;5.88;;;20.00;97.10;;;;;;5033613;28;20116;-89
2021/06/02 07:34:25;;;;;;;;;;;;;;;;;;;;;
2021/06/02 07:37:04;;;;;;;8.20;5.72;;;20.10;97.00;;;;;;5037561;28;20089;-94
2021/06/02 07:39:40;;;;;;;9.82;7.18;;;20.20;96.90;;;;;;5035476;28;20028;-90
2021/06/02 07:42:09;;;;;;;7.60;5.57;;;20.20;96.80;;;;;;5035465;28;20045;-89
2021/06/02 07:44:37;;;;;;;7.85;6.07;;;20.30;96.80;;;;;;5038151;28;20017;-90
2021/06/02 07:47:04;;;;;;;7.45;6.28;;;20.40;96.70;;;;;;5035033;28;20033;-89
2021/06/02 07:49:30;;;;;;;8.70;6.55;;;20.40;96.60;;;;;;5033308;28;20116;-90
2021/06/02 07:52:00;;;;;;;10.35;6.60;;;20.40;96.60;;;;;;5033140;28;20049;-89
2021/06/02 07:54:26;;;;;;;8.05;6.32;;;20.50;96.40;;;;;;5035358;28;20029;-90
2021/06/02 07:56:52;;;;;;;8.38;6.13;;;20.60;96.20;;;;;;5033000;28;20053;-90
2021/06/02 07:59:18;;;;;;;7.78;5.82;;;20.60;96.30;;;;;;5034206;28;20033;-90
2021/06/02 08:01:43;;;;;;;7.20;5.72;;;20.70;96.30;;;;;;5037595;28;20030;-90
2021/06/02 08:04:09;;;;;;;10.20;7.15;;;20.70;96.20;;;;;;5037537;28;20257;-89
2021/06/02 08:09:19;;;;;;;7.50;5.78;;;20.90;96.20;;;;;;5053113;22;20514;-90
2021/06/02 08:11:51;;;;;;;7.22;5.13;;;21.00;96.00;;;;;;5038838;28;20026;-91
2021/06/02 08:14:17;;;;;;;7.10;5.03;;;21.10;95.90;;;;;;5037997;28;20063;-90
2021/06/02 08:16:43;;;;;;;6.45;4.90;;;21.20;95.70;;;;;;5037976;28;20025;-89
2021/06/02 08:19:08;;;;;;;6.95;4.93;;;21.20;95.60;;;;;;5040889;28;20040;-89
2021/06/02 08:21:35;;;;;;;7.50;4.78;;;21.30;95.50;;;;;;5059572;28;20025;-93
2021/06/02 08:24:02;;;;;;;8.73;5.35;;;21.40;95.40;;;;;;5059888;28;20009;-91
2021/06/02 08:26:33;;;;;;;7.22;5.25;;;21.40;95.30;;;;;;5059351;28;20018;-89
2021/06/02 08:28:59;;;;;;;8.00;5.30;;;21.50;95.20;;;;;;5059604;28;20025;-92
2021/06/02 08:31:24;;;;;;;7.40;5.85;;;21.60;95.10;;;;;;5059353;28;20033;-89
2021/06/02 08:33:50;;;;;;;8.63;5.35;;;21.70;94.80;;;;;;5060021;28;20043;-91
2021/06/02 08:36:15;;;;;;;7.18;5.00;;;21.80;94.70;;;;;;5059379;28;20005;-90
2021/06/02 08:38:42;;;;;;;6.57;5.07;;;21.90;94.70;;;;;;5059532;28;20020;-92
2021/06/02 08:41:08;;;;;;;7.50;5.13;;;21.90;94.40;;;;;;5056928;28;20064;-88
2021/06/02 08:43:35;;;;;;;6.53;4.88;;;22.00;94.20;;;;;;5058766;28;20111;-91
2021/06/02 08:46:33;;;;;;;7.25;4.97;;;22.00;94.20;;;;;;5059799;28;20269;-92
2021/06/02 08:48:59;;;;;;;6.47;4.65;;;22.10;93.90;;;;;;5031607;28;20036;-89
2021/06/02 08:51:24;;;;;;;5.90;4.47;;;22.20;93.90;;;;;;5051333;28;20030;-90
2021/06/02 08:53:50;;;;;;;6.18;4.95;;;22.30;94.00;;;;;;5038485;28;20386;-90
2021/06/02 08:56:17;;;;;;;9.43;4.55;;;22.40;93.80;;;;;;5036860;28;20075;-90
2021/06/02 08:58:43;;;;;;;7.65;4.32;;;22.50;93.60;;;;;;5036523;28;20026;-90
2021/06/02 09:01:09;;;;;;;5.05;3.90;;;22.60;93.40;;;;;;5035486;28;20013;-88
2021/06/02 09:03:35;;;;;;;9.40;5.38;;;22.70;93.20;;;;;;5035446;28;20028;-88
2021/06/02 09:06:06;;;;;;;8.65;6.60;;;22.80;93.00;;;;;;5035788;28;20098;-90
2021/06/02 09:08:33;;;;;;;6.97;5.32;;;23.00;92.40;;;;;;5035957;28;20077;-88
2021/06/02 09:13:34;;;;;;;7.57;5.10;;;23.30;92.30;;;;;;5014999;28;20050;-89
2021/06/02 09:16:00;;;;;;;6.78;4.68;;;23.40;91.90;;;;;;5016124;28;20022;-88
2021/06/02 09:18:26;;;;;;;6.95;4.50;;;23.50;91.90;;;;;;5015889;28;20069;-87
2021/06/02 09:20:54;;;;;;;6.80;4.95;;;23.60;91.60;;;;;;5011171;28;20502;-88
2021/06/02 09:23:31;;;;;;;6.55;4.45;;;23.80;91.30;;;;;;5012842;28;20026;-86
2021/06/02 09:26:11;;;;;;;7.30;5.03;;;23.90;91.20;;;;;;5030981;28;20084;-87
2021/06/02 09:29:09;;;;;;;6.07;4.47;;;23.90;91.20;;;;;;5014805;28;20129;-86
2021/06/02 09:31:47;;;;;;;8.02;4.88;;;24.20;91.40;;;;;;5027354;28;20101;-87
2021/06/02 09:34:21;;;;;;;5.60;4.10;;;25.40;90.60;;;;;;4995225;28;20033;-87
2021/06/02 09:36:50;;;;;;;4.20;2.90;;;26.70;89.10;;;;;;5009028;28;20022;-86
2021/06/02 09:39:19;;;;;;;4.53;3.40;;;27.80;87.60;;;;;;5014439;28;20033;-88
2021/06/02 09:41:51;;;;;;;4.07;2.72;;;28.70;85.60;;;;;;5013864;28;20480;-88
2021/06/02 09:44:21;;;;;;;5.15;2.97;;;29.40;84.40;;;;;;5014506;28;20018;-86
2021/06/02 09:47:06;;;;;;;3.38;2.50;;;30.00;82.70;;;;;;5016453;28;20106;-88
2021/06/02 09:49:52;;;;;;;4.07;2.53;;;30.70;81.30;;;;;;5007185;28;20018;-85
2021/06/02 09:52:19;;;;;;;2.97;2.20;;;31.20;79.40;;;;;;5012713;28;20026;-86
2021/06/02 09:54:46;;;;;;;4.80;2.85;;;31.60;78.20;;;;;;5014954;28;20026;-88
2021/06/02 09:57:13;;;;;;;4.75;3.13;;;32.00;76.30;;;;;;5023497;28;20053;-85
2021/06/02 09:59:56;;;;;;;3.83;2.53;;;32.20;73.00;;;;;;5013536;28;20018;-87
2021/06/02 10:02:22;;;;;;;5.25;3.05;;;32.50;71.60;;;;;;5014475;28;20522;-87
2021/06/02 10:04:59;;;;;;;5.30;2.50;;;32.50;69.60;;;;;;5014478;28;20043;-86
2021/06/02 10:07:26;;;;;;;3.45;2.25;;;32.40;63.90;;;;;;5013973;28;20394;-89
2021/06/02 10:09:52;;;;;;;3.13;2.00;;;32.20;65.70;;;;;;5015333;28;20018;-88
2021/06/02 10:12:18;;;;;;;3.22;2.08;;;32.40;64.80;;;;;;5015435;28;20137;-88
2021/06/02 10:14:55;;;;;;;3.00;2.30;;;32.70;64.30;;;;;;5014347;28;20353;-89
2021/06/02 10:17:30;;;;;;;3.10;2.33;;;33.00;63.00;;;;;;5019219;28;20025;-87
2021/06/02 10:20:04;;;;;;;4.30;2.30;;;33.20;62.40;;;;;;5014104;28;20109;-85
2021/06/02 10:22:30;;;;;;;2.47;1.80;;;33.30;60.50;;;;;;5014361;28;20022;-88
2021/06/02 10:25:02;;;;;;;2.63;1.90;;;33.40;59.30;;;;;;5013360;28;20028;-87
2021/06/02 10:27:28;;;;;;;2.38;1.65;;;33.50;58.90;;;;;;5014955;28;20029;-86
2021/06/02 10:29:55;;;;;;;2.13;1.63;;;33.80;58.40;;;;;;5013004;28;20057;-87
2021/06/02 10:32:22;;;;;;;2.67;1.88;;;33.90;56.40;;;;;;5014629;28;20466;-87
2021/06/02 10:34:51;;;;;;;5.22;1.90;;;33.80;55.80;;;;;;5013677;28;20177;-87
2021/06/02 10:37:18;;;;;;;4.10;2.28;;;33.90;55.60;;;;;;5013171;28;20529;-86
2021/06/02 10:40:02;;;;;;;3.22;2.05;;;34.00;55.80;;;;;;5011916;28;20022;-85
2021/06/02 10:42:46;;;;;;;3.67;2.50;;;34.10;55.20;;;;;;5009025;28;20041;-86
2021/06/02 10:45:31;;;;;;;4.63;1.95;;;34.10;53.90;;;;;;5005502;28;20026;-85
2021/06/02 10:47:59;;;;;;;3.88;1.75;;;34.30;53.70;;;;;;5009812;28;20403;-86
2021/06/02 10:50:41;;;;;;;4.50;2.47;;;34.50;53.30;;;;;;5008098;28;20128;-87
2021/06/02 10:53:19;;;;;;;4.25;2.10;;;34.70;50.10;;;;;;5006519;28;20033;-88
2021/06/02 10:55:52;;;;;;;3.42;1.83;;;34.40;51.90;;;;;;5026460;28;20022;-88
2021/06/02 10:58:28;;;;;;;3.28;2.05;;;34.50;52.20;;;;;;5011600;28;20076;-87
2021/06/02 11:01:06;;;;;;;3.40;1.95;;;34.60;50.30;;;;;;5013386;28;20045;-87
2021/06/02 11:03:33;;;;;;;3.33;1.98;;;34.60;50.20;;;;;;4997506;28;20076;-86
2021/06/02 11:06:14;;;;;;;5.20;2.35;;;34.50;51.60;;;;;;5013341;28;20053;-88
2021/06/02 11:08:52;;;;;;;2.63;1.70;;;34.30;50.00;;;;;;5028164;28;20091;-87
2021/06/02 11:11:21;;;;;;;4.25;1.95;;;34.40;50.80;;;;;;5011439;28;20498;-87
2021/06/02 11:14:15;;;;;;;3.25;1.88;;;34.40;50.60;;;;;;5010393;28;20121;-86
2021/06/02 11:16:46;;;;;;;3.50;1.90;;;34.60;49.50;;;;;;5011960;28;20036;-88
2021/06/02 11:19:17;;;;;;;3.72;2.05;;;34.60;49.90;;;;;;5008454;28;20042;-89
2021/06/02 11:21:52;;;;;;;3.17;1.90;;;34.40;49.30;;;;;;5010919;28;20010;-86
2021/06/02 11:24:33;;;;;;;2.75;1.60;;;34.40;49.10;;;;;;5011672;28;20029;-86
2021/06/02 11:27:11;;;;;;;2.42;1.55;;;34.60;49.00;;;;;;5025244;28;20026;-87
2021/06/02 11:29:57;;;;;;;2.60;1.50;;;34.90;48.50;;;;;;5004246;28;20045;-87
2021/06/02 11:32:45;;;;;;;2.80;1.40;;;35.10;49.10;;;;;;5007509;28;20061;-88
2021/06/02 11:35:11;;;;;;;3.67;1.58;;;35.40;48.80;;;;;;5011910;28;20513;-88
2021/06/02 11:37:37;;;;;;;1.95;1.65;;;35.30;48.00;;;;;;5012417;28;20018;-88
2021/06/02 11:40:07;;;;;;;3.13;1.80;;;35.30;48.20;;;;;;5011191;28;20028;-86
2021/06/02 11:42:43;;;;;;;2.97;1.60;;;35.40;48.20;;;;;;5012616;28;20121;-88
2021/06/02 11:45:14;;;;;;;4.20;1.40;;;35.60;47.30;;;;;;5012077;28;20096;-88
2021/06/02 11:47:52;;;;;;;3.08;1.50;;;35.80;46.40;;;;;;5012046;28;20121;-88
2021/06/02 11:50:23;;;;;;;2.20;1.50;;;36.10;45.40;;;;;;5012783;28;20018;-88
2021/06/02 11:53:00;;;;;;;2.58;1.50;;;35.80;45.10;;;;;;5012239;28;20029;-87
2021/06/02 11:55:27;;;;;;;1.85;1.30;;;35.80;45.10;;;;;;5028285;28;20511;-88
2021/06/02 11:57:54;;;;;;;2.22;1.33;;;35.60;45.30;;;;;;5012070;28;20120;-87
2021/06/02 12:00:26;;;;;;;1.52;1.38;;;35.80;45.40;;;;;;5011797;28;20018;-88
2021/06/02 12:03:04;;;;;;;2.53;1.55;;;36.10;45.70;;;;;;5012315;28;20036;-88
2021/06/02 12:05:31;;;;;;;2.33;1.40;;;36.20;46.30;;;;;;4995905;28;20483;-88
2021/06/02 12:08:03;;;;;;;4.70;1.70;;;36.50;45.20;;;;;;5006865;28;20034;-88
2021/06/02 12:10:57;;;;;;;3.53;2.10;;;36.50;45.10;;;;;;5005465;28;20098;-88
2021/06/02 12:13:29;;;;;;;3.05;1.90;;;36.20;44.00;;;;;;5005055;28;20077;-87
2021/06/02 12:16:00;;;;;;;2.30;1.73;;;35.50;44.90;;;;;;5006755;28;20037;-89
2021/06/02 12:18:40;;;;;;;3.03;1.90;;;35.40;47.20;;;;;;5007880;28;20026;-90
2021/06/02 12:21:06;;;;;;;4.00;1.90;;;35.40;47.40;;;;;;5007944;28;20030;-88
2021/06/02 12:23:32;;;;;;;2.45;1.80;;;35.40;47.00;;;;;;5006281;28;20018;-89
2021/06/02 12:25:58;;;;;;;2.60;1.48;;;35.70;45.70;;;;;;5009503;28;20157;-90
2021/06/02 12:28:23;;;;;;;1.92;1.42;;;35.80;44.50;;;;;;5007131;28;20045;-88
2021/06/02 12:30:49;;;;;;;2.35;1.50;;;36.00;44.70;;;;;;5005953;28;20018;-87
2021/06/02 12:33:14;;;;;;;2.35;1.40;;;36.30;45.60;;;;;;5006432;28;20065;-88
2021/06/02 12:35:45;;;;;;;3.30;1.55;;;36.60;44.50;;;;;;5006561;28;20531;-86
2021/06/02 12:38:28;;;;;;;2.80;1.52;;;36.70;45.30;;;;;;5006251;28;20046;-87
2021/06/02 12:40:55;;;;;;;3.38;2.05;;;36.70;46.10;;;;;;5007423;28;20148;-88
2021/06/02 12:43:25;;;;;;;2.42;1.48;;;36.70;44.20;;;;;;5004687;28;20037;-89
2021/06/02 12:45:53;;;;;;;2.75;1.40;;;36.70;45.10;;;;;;5004588;28;20022;-88
2021/06/02 12:48:32;;;;;;;1.95;1.55;;;36.70;45.60;;;;;;5008675;28;20065;-86
2021/06/02 12:50:58;;;;;;;3.30;1.50;;;36.80;44.70;;;;;;5009348;28;20124;-87
2021/06/02 12:53:35;;;;;;;4.90;1.80;;;36.70;44.40;;;;;;5008883;28;20440;-88
2021/06/02 12:56:00;;;;;;;3.22;1.90;;;36.70;45.00;;;;;;5005405;28;20014;-87
2021/06/02 12:58:30;;;;;;;3.20;1.90;;;36.60;46.00;;;;;;5011028;28;20164;-88
2021/06/02 13:01:04;;;;;;;4.15;2.63;;;36.60;44.80;;;;;;5012838;28;20022;-89
2021/06/02 13:03:29;;;;;;;2.78;2.05;;;36.40;44.20;;;;;;5009884;28;20029;-86
2021/06/02 13:05:57;;;;;;;2.70;1.73;;;36.10;46.00;;;;;;5006711;28;20056;-87
2021/06/02 13:08:23;;;;;;;4.78;1.88;;;36.10;45.50;;;;;;5013468;28;20103;-87
2021/06/02 13:10:49;;;;;;;4.15;2.05;;;36.00;46.10;;;;;;5009028;28;20018;-87
2021/06/02 13:13:16;;;;;;;4.18;1.92;;;35.90;45.70;;;;;;5007355;28;20056;-88
2021/06/02 13:15:54;;;;;;;2.92;2.10;;;36.00;46.10;;;;;;5008236;28;20105;-88
2021/06/02 13:18:22;;;;;;;3.28;2.13;;;36.10;45.40;;;;;;5006772;28;20178;-87
2021/06/02 13:20:48;;;;;;;2.90;1.70;;;36.30;45.50;;;;;;5006971;28;20044;-88
2021/06/02 13:23:31;;;;;;;2.40;1.83;;;36.50;45.60;;;;;;5007180;28;20034;-89
2021/06/02 13:26:14;;;;;;;3.47;1.70;;;36.70;45.70;;;;;;5001226;28;20025;-88
2021/06/02 13:28:54;;;;;;;2.83;1.77;;;36.90;45.00;;;;;;5009368;28;20556;-89
2021/06/02 13:31:45;;;;;;;2.53;1.80;;;37.00;45.20;;;;;;5025872;28;20025;-91
2021/06/02 13:34:27;;;;;;;2.58;1.70;;;37.00;45.70;;;;;;5011902;28;20037;-91
2021/06/02 13:36:53;;;;;;;4.93;2.10;;;37.00;44.00;;;;;;5007748;28;20033;-92
2021/06/02 13:39:19;;;;;;;3.33;1.70;;;36.70;44.30;;;;;;5012168;28;20029;-91
2021/06/02 13:41:56;;;;;;;3.72;2.22;;;36.50;44.10;;;;;;5011208;28;20112;-91